ACT        NSW        VIC        QLD        SA        WA        TAS        NT        INFO        CALC            by VK5ZD

  Atmospheric Gas Attenuation - ITU Rec 676-11   --------------- db/100km ---------------
Station Date Time Temp RH % AH g/m3 Dew Point Wind Direction Speed kph Gust kph Barometer mB Rainfall Since 9am 24GHz 47GHz 76GHz 122GHz 134GHz 241GHz
Adelaide (West Terrace / Ngayirdapira) 24 19:10 34.2 19 7.21 7.3 15 17 1001 0 15.8 18.7 26.5 69.3 62.0 213.2
Adelaide Airport 24 19:10 30.9 34 10.83 13.2 28 30 1001.2 0 23.4 24.1 39.2 103.1 102.7 355.8
Andamooka 24 09:00 32.8 23 8.1 9.2 17 1013.1 0 17.7 20.4 30.0 78.6 72.5 250.0
Arkaroola 24 15:00 39 35 17 21.2 17 1013.1 0 35.5 30.9 56.9 150.4 162.5 565.4
Cape Borda 24 19:10 34.7 20 7.79 8.4 20 24 1002.1 0 17.0 19.3 28.1 73.5 67.2 231.6
CAPE JAFFA 24 19:10 29.4 29 8.51 9.5 28 48 1001 0 18.7 21.3 32.1 84.3 79.1 272.8
Cape Willoughby 24 19:10 26.3 40 9.9 11.6 22 24 1013.1 0 21.7 24.4 38.6 101.5 98.9 341.7
Ceduna 24 19:10 31.3 35 11.39 14 19 20 1000.7 0 24.6 24.7 40.9 107.7 108.5 376.0
Clare 24 19:10 35.8 12 4.95 2 11 17 1002.3 0 11.2 15.9 19.9 51.7 40.6 138.0
Cleve 24 09:00 33 11 3.92 -1 19 1004.6 0 9.2 15.3 17.9 46.3 33.0 111.0
Cleve Airport 24 19:10 30.8 24 7.6 7.9 11 13 1002.7 0 16.8 19.9 28.8 75.5 68.6 235.9
Coober Pedy Airport 24 19:10 33.3 32 11.58 14.8 22 24 999.5 0 24.8 24.4 40.5 106.7 107.8 373.9
Coonawarra 24 19:10 38.1 9 4.18 0.1 15 17 1000.6 0 9.6 14.7 17.4 45.1 33.1 111.9
Cultana (Defence) 24 19:10 38.7 9 4.31 0.1 26 28 1013.1 0 9.8 15.1 17.9 46.4 34.4 116.2
Cummins Airport 24 19:10 37.1 14 6.17 5.2 26 30 1001.5 0 13.6 17.0 22.8 59.5 50.5 173.1
Edinburgh 24 19:10 36.6 13 5.59 3.7 22 24 1000.8 0 12.5 16.4 21.4 55.6 45.7 156.0
Edithburgh 24 19:10 27.1 47 12.16 14.8 11 11 1013.1 0 26.4 27.5 46.5 122.4 124.9 432.9
Elliston 24 09:00 22 80 15.53 18.5 19 1006 0 33.9 34.6 63.5 167.9 179.6 623.1
Ernabella/Pukatja 24 19:10 31.4 49 16.03 19.7 32 37 997.5 2 34.2 31.6 57.8 153.0 164.3 571.0
Eudunda 24 09:00 30.5 13 4.05 -0.7 4 1008 0 9.5 15.9 18.9 48.8 35.3 118.7
Gluepot 24 09:00 32.8 14 4.93 1.7 4 1013.1 0 11.2 16.7 20.9 54.1 42.3 143.6
Hawker 24 09:00 35.5 21 8.53 10 13 1004.4 0 18.5 20.1 30.0 78.8 73.9 255.1
Hindmarsh Island 24 19:10 24.4 54 12.02 14.5 30 35 1001.3 0 26.3 27.7 46.9 123.8 126.3 437.6
Kadina 24 19:10 33.4 20 7.27 7.4 24 26 1001 0 16.0 18.9 26.9 70.5 63.2 217.2
Karoonda 24 09:00 30.1 27 8.23 9.2 4 1013.1 0 18.1 21.2 31.4 82.2 76.3 263.0
Keith 24 09:00 30.5 39 12.15 15 20 1007.8 0 26.2 26.3 44.3 116.7 119.1 412.8
Kimba 24 09:00 31.5 17 5.59 3.6 0 1013.1 0 12.6 17.7 23.0 59.8 49.1 167.3
Kingscote 24 19:10 34.7 15 5.84 4.3 15 15 1001.1 0 13.0 17.0 22.5 58.7 49.0 167.4
Kuitpo 24 19:10 33.1 17 6.09 4.8 20 26 1001.3 0 13.6 17.6 23.6 61.7 52.2 178.7
Kyancutta 24 15:00 41.3 15 8.18 9.6 17 1002.7 0 17.5 18.5 27.1 71.0 65.7 226.9
Lameroo Aws 24 19:10 38.8 11 5.29 3 19 22 1013.1 0 11.8 16.1 20.4 53.0 42.5 144.8
Leigh Creek 24 19:10 39.6 8 4 -0.8 26 30 999.9 0 9.2 14.3 16.7 43.2 31.1 104.9
Loxton 24 19:10 36.5 32 13.68 17.2 9 9 1001.1 0 28.9 26.5 46.0 121.6 126.9 440.8
Marree Airport 24 19:10 41.7 6 3.34 -3.1 13 15 999.4 0 7.8 13.4 14.8 38.1 25.4 84.6
Minlaton Airport 24 19:10 36.4 13 5.53 3.6 20 24 1001.1 0 12.3 16.4 21.3 55.3 45.3 154.6
Minnipa Rs 24 19:10 32.9 17 6.02 4.6 17 22 1003.3 0 13.4 17.6 23.6 61.4 51.8 177.1
Moomba Airport 24 19:10 40.5 17 8.9 10.7 13 15 1000.4 0 19.0 19.4 29.2 76.8 72.8 251.8
Mount Barker 24 09:00 31.8 50 16.71 20.2 30 1013.1 0 35.5 33.1 61.1 161.5 174.2 605.6
Mount Crawford 24 19:10 34.6 12 4.65 1.1 15 19 1002.4 0 10.6 15.8 19.4 50.3 38.6 130.8
Mount Gambier 24 19:10 35.6 11 4.49 0.6 19 20 1001.1 0 10.2 15.4 18.7 48.6 36.7 124.3
Mount Ive 24 09:00 33 9 3.21 -4.2 9 1005.9 0 7.7 14.6 16.1 41.5 27.1 90.0
Mount Lofty 24 19:10 31.3 17 5.53 3.3 6 7 1013.1 0 12.5 17.6 22.9 59.5 48.6 165.7
Murray Bridge 24 09:00 28.1 30 8.2 9.1 7 1013.1 0 18.1 21.6 32.1 84.0 77.9 268.2
Naracoorte 24 19:10 38.7 8 3.83 -1.4 26 30 1000.5 0 8.8 14.3 16.5 42.6 30.1 101.2
Noarlunga 24 19:10 32.8 27 9.51 11.3 6 7 1013.1 0 20.6 22.2 34.4 90.4 87.1 301.1
NULLARBOR 24 19:10 23.9 99 21.42 23.7 19 22 1000.5 2.8 46.4 44.8 89.4 236.9 265.1 920.6
Nuriootpa 24 19:10 36 18 7.5 8 0 0 1001.7 0 16.4 18.7 26.8 70.2 63.4 218.4
Oodnadatta 24 19:10 23.9 91 19.69 22.3 39 48 1002.4 22.6 42.6 41.4 81.0 214.3 237.3 824.1
Padthaway 24 19:10 38.8 8 3.85 -1.4 17 20 1013.1 0 8.9 14.6 16.8 43.3 30.6 102.8
Pallamana 24 19:10 34.4 20 7.67 8.2 20 22 1001 0 16.8 19.2 27.8 72.7 66.2 228.1
Parafield 24 19:10 37.1 11 4.85 1.8 19 20 1000.7 0 10.9 15.6 19.3 50.2 39.1 132.8
Parawa West 24 19:10 26.7 36 9.11 10.4 11 11 1013.1 0 20.0 23.2 35.7 93.6 89.3 308.3
Parndana 24 19:10 33.2 17 6.12 4.8 11 13 1013.1 0 13.6 18.0 24.1 62.7 53.0 181.3
Point Avoid 24 19:10 27.7 48 12.84 15.7 11 13 1013.1 0 27.8 28.4 48.7 128.4 132.4 459.2
Port Augusta 24 19:10 40.4 8 4.17 -0.2 24 26 999.7 0 9.5 14.4 16.9 43.9 32.2 108.7
Port Lincoln Airport 24 19:10 32.1 33 11.2 13.8 4 6 1001.7 0 24.1 24.3 39.9 105.0 105.4 365.2
Port Pirie Airport Aws 24 19:10 40 10 5.11 2.6 7 9 999.4 0 11.4 15.3 19.3 50.2 39.9 135.9
Renmark Airport 24 19:10 40.5 10 5.24 3 19 24 1001 0 11.6 15.4 19.6 50.9 40.8 139.1
ROBE AIRFIELD 24 19:10 28.6 31 8.71 9.8 30 39 1013.1 0 19.1 22.2 33.5 87.9 82.9 285.9
Roseworthy 24 19:10 36.4 19 8.08 9.1 17 20 1000.3 0 17.5 19.3 28.3 74.2 68.5 236.4
Roxby Downs 24 19:10 39.3 9 4.44 0.6 7 7 999.5 0 10.0 14.8 17.8 46.2 34.7 117.6
Snowtown 24 19:10 38.8 7 3.37 -3.2 9 11 1000.8 0 7.9 13.8 15.4 39.6 26.5 88.3
Stenhouse Bay 24 19:10 32.3 22 7.55 7.8 2 2 1013.1 0 16.6 19.8 28.5 74.6 67.5 232.1
Strathalbyn 24 19:10 29.6 26 7.72 8.1 22 24 1001.2 0 17.1 20.3 29.5 77.4 70.7 243.3
Streaky Bay 24 09:00 25.9 54 13.07 16 13 1004.8 0 28.4 29.0 50.3 132.7 137.6 477.1
Tarcoola 24 19:10 34.3 23 8.77 10.2 19 24 1000 0 19.0 20.5 31.0 81.5 77.1 266.2
Victor Harbor 24 09:00 27.5 46 12.17 15 9 1013.1 0 26.4 27.4 46.3 121.9 124.4 431.2
Warooka 24 09:00 32.4 12 4.14 -0.4 19 1004.4 0 9.6 15.6 18.6 48.1 35.2 118.5
Whyalla 24 19:10 34.4 26 9.97 12.1 20 22 1000.4 0 21.5 22.0 34.7 91.4 89.3 309.0
Woomera 24 19:10 37.8 10 4.57 1 11 15 1000.1 0 10.4 15.1 18.4 47.9 36.4 123.5
Wudinna Airport 24 19:10 33.8 16 5.94 4.5 20 20 1002.6 0 13.3 17.4 23.1 60.1 50.5 172.6
Yongala 24 09:00 32.4 31 10.69 13.3 9 1013.1 0 23.0 23.9 38.5 101.2 100.3 347.3
Yunta 24 19:10 38.1 13 6.03 4.9 30 35 1013.1 0 13.3 17.0 22.5 58.6 49.3 168.6

Last Refresh: 24-Jan-2021 19:17:12

The information presented on this site is sourced from the Bureau of Meteorology.  Copyright in all material sourced from the Bureau of Meteorology resides with the Commonwealth of Australia.